sensor_id;sensor_type;location;lat;lon;timestamp;P1;durP1;ratioP1;P2;durP2;ratioP2
75772;SDS011;64381;0.000;0.000;2024-03-06T00:01:37;2.93;;;1.10;;
75772;SDS011;64381;0.000;0.000;2024-03-06T00:04:03;2.77;;;1.10;;
75772;SDS011;64381;0.000;0.000;2024-03-06T00:06:28;3.00;;;1.13;;
75772;SDS011;64381;0.000;0.000;2024-03-06T00:08:53;2.80;;;1.03;;
75772;SDS011;64381;0.000;0.000;2024-03-06T00:11:19;2.77;;;1.20;;
75772;SDS011;64381;0.000;0.000;2024-03-06T00:13:44;3.00;;;1.30;;
75772;SDS011;64381;0.000;0.000;2024-03-06T00:16:09;3.00;;;1.40;;
75772;SDS011;64381;0.000;0.000;2024-03-06T00:18:34;2.87;;;1.20;;
75772;SDS011;64381;0.000;0.000;2024-03-06T00:20:59;2.60;;;1.10;;
75772;SDS011;64381;0.000;0.000;2024-03-06T00:23:25;2.97;;;1.30;;
75772;SDS011;64381;0.000;0.000;2024-03-06T00:25:50;3.00;;;1.20;;
75772;SDS011;64381;0.000;0.000;2024-03-06T00:28:15;2.77;;;1.10;;
75772;SDS011;64381;0.000;0.000;2024-03-06T00:30:40;2.90;;;1.20;;
75772;SDS011;64381;0.000;0.000;2024-03-06T00:33:06;2.50;;;1.00;;
75772;SDS011;64381;0.000;0.000;2024-03-06T00:35:31;2.60;;;1.00;;
75772;SDS011;64381;0.000;0.000;2024-03-06T00:37:56;2.60;;;1.00;;
75772;SDS011;64381;0.000;0.000;2024-03-06T00:40:21;3.17;;;1.10;;
75772;SDS011;64381;0.000;0.000;2024-03-06T00:42:46;2.87;;;1.23;;
75772;SDS011;64381;0.000;0.000;2024-03-06T00:45:12;2.40;;;0.90;;
75772;SDS011;64381;0.000;0.000;2024-03-06T00:47:37;2.75;;;1.10;;
75772;SDS011;64381;0.000;0.000;2024-03-06T00:50:02;2.80;;;1.17;;
75772;SDS011;64381;0.000;0.000;2024-03-06T00:52:28;2.63;;;1.00;;
75772;SDS011;64381;0.000;0.000;2024-03-06T00:54:53;2.80;;;1.20;;
75772;SDS011;64381;0.000;0.000;2024-03-06T00:57:18;3.17;;;1.27;;
75772;SDS011;64381;0.000;0.000;2024-03-06T00:59:44;2.70;;;1.10;;
75772;SDS011;64381;0.000;0.000;2024-03-06T01:02:09;2.97;;;1.20;;
75772;SDS011;64381;0.000;0.000;2024-03-06T01:04:34;2.97;;;1.17;;
75772;SDS011;64381;0.000;0.000;2024-03-06T01:06:59;2.53;;;1.10;;
75772;SDS011;64381;0.000;0.000;2024-03-06T01:09:25;2.57;;;1.13;;
75772;SDS011;64381;0.000;0.000;2024-03-06T01:11:50;2.80;;;1.10;;
75772;SDS011;64381;0.000;0.000;2024-03-06T01:14:15;2.88;;;1.23;;
75772;SDS011;64381;0.000;0.000;2024-03-06T01:16:41;2.60;;;1.10;;
75772;SDS011;64381;0.000;0.000;2024-03-06T01:19:06;2.60;;;1.10;;
75772;SDS011;64381;0.000;0.000;2024-03-06T01:21:31;3.10;;;1.20;;
75772;SDS011;64381;0.000;0.000;2024-03-06T01:23:56;2.87;;;1.10;;
75772;SDS011;64381;0.000;0.000;2024-03-06T01:26:21;2.57;;;1.00;;
75772;SDS011;64381;0.000;0.000;2024-03-06T01:28:47;2.60;;;1.13;;
75772;SDS011;64381;0.000;0.000;2024-03-06T01:31:12;2.80;;;1.20;;
75772;SDS011;64381;0.000;0.000;2024-03-06T01:33:37;2.77;;;1.10;;
75772;SDS011;64381;0.000;0.000;2024-03-06T01:36:04;3.00;;;1.30;;
75772;SDS011;64381;0.000;0.000;2024-03-06T01:38:29;3.00;;;1.40;;
75772;SDS011;64381;0.000;0.000;2024-03-06T01:40:54;2.93;;;1.20;;
75772;SDS011;64381;0.000;0.000;2024-03-06T01:43:20;3.07;;;1.30;;
75772;SDS011;64381;0.000;0.000;2024-03-06T01:45:47;2.75;;;1.13;;
75772;SDS011;64381;0.000;0.000;2024-03-06T01:48:13;3.08;;;1.25;;
75772;SDS011;64381;0.000;0.000;2024-03-06T01:50:38;3.10;;;1.27;;
75772;SDS011;64381;0.000;0.000;2024-03-06T01:53:03;2.80;;;1.23;;
75772;SDS011;64381;0.000;0.000;2024-03-06T01:55:29;2.90;;;1.20;;
75772;SDS011;64381;0.000;0.000;2024-03-06T01:57:54;2.93;;;1.20;;
75772;SDS011;64381;0.000;0.000;2024-03-06T02:00:19;2.60;;;1.07;;
75772;SDS011;64381;0.000;0.000;2024-03-06T02:02:44;2.33;;;0.90;;
75772;SDS011;64381;0.000;0.000;2024-03-06T02:05:10;3.42;;;1.40;;
75772;SDS011;64381;0.000;0.000;2024-03-06T02:07:36;3.10;;;1.40;;
75772;SDS011;64381;0.000;0.000;2024-03-06T02:10:03;2.60;;;1.10;;
75772;SDS011;64381;0.000;0.000;2024-03-06T02:12:29;3.10;;;1.30;;
75772;SDS011;64381;0.000;0.000;2024-03-06T02:14:54;2.80;;;1.20;;
75772;SDS011;64381;0.000;0.000;2024-03-06T02:17:20;2.83;;;1.30;;
75772;SDS011;64381;0.000;0.000;2024-03-06T02:19:45;2.70;;;1.30;;
75772;SDS011;64381;0.000;0.000;2024-03-06T02:22:10;2.60;;;1.10;;
75772;SDS011;64381;0.000;0.000;2024-03-06T02:24:36;2.50;;;1.20;;
75772;SDS011;64381;0.000;0.000;2024-03-06T02:27:02;2.70;;;1.33;;
75772;SDS011;64381;0.000;0.000;2024-03-06T02:29:28;2.60;;;1.08;;
75772;SDS011;64381;0.000;0.000;2024-03-06T02:31:53;2.90;;;1.50;;
75772;SDS011;64381;0.000;0.000;2024-03-06T02:34:19;2.77;;;1.10;;
75772;SDS011;64381;0.000;0.000;2024-03-06T02:36:44;2.57;;;1.20;;
75772;SDS011;64381;0.000;0.000;2024-03-06T02:39:09;3.13;;;1.20;;
75772;SDS011;64381;0.000;0.000;2024-03-06T02:41:35;2.83;;;1.23;;
75772;SDS011;64381;0.000;0.000;2024-03-06T02:44:01;2.80;;;1.20;;
75772;SDS011;64381;0.000;0.000;2024-03-06T02:46:26;2.80;;;1.20;;
75772;SDS011;64381;0.000;0.000;2024-03-06T02:48:52;2.57;;;1.10;;
75772;SDS011;64381;0.000;0.000;2024-03-06T02:51:20;2.80;;;1.13;;
75772;SDS011;64381;0.000;0.000;2024-03-06T02:53:46;2.60;;;1.20;;
75772;SDS011;64381;0.000;0.000;2024-03-06T02:56:17;2.67;;;1.07;;
75772;SDS011;64381;0.000;0.000;2024-03-06T02:58:43;2.42;;;1.00;;
75772;SDS011;64381;0.000;0.000;2024-03-06T03:01:08;2.70;;;1.10;;
75772;SDS011;64381;0.000;0.000;2024-03-06T03:03:34;2.93;;;1.30;;
75772;SDS011;64381;0.000;0.000;2024-03-06T03:05:59;2.57;;;1.00;;
75772;SDS011;64381;0.000;0.000;2024-03-06T03:08:24;2.80;;;1.27;;
75772;SDS011;64381;0.000;0.000;2024-03-06T03:10:49;3.13;;;1.30;;
75772;SDS011;64381;0.000;0.000;2024-03-06T03:13:14;2.77;;;1.10;;
75772;SDS011;64381;0.000;0.000;2024-03-06T03:15:40;3.00;;;1.33;;
75772;SDS011;64381;0.000;0.000;2024-03-06T03:18:05;2.83;;;1.00;;
75772;SDS011;64381;0.000;0.000;2024-03-06T03:20:30;3.00;;;1.20;;
75772;SDS011;64381;0.000;0.000;2024-03-06T03:22:55;3.07;;;1.40;;
75772;SDS011;64381;0.000;0.000;2024-03-06T03:25:20;2.50;;;1.10;;
75772;SDS011;64381;0.000;0.000;2024-03-06T03:27:46;2.50;;;1.10;;
75772;SDS011;64381;0.000;0.000;2024-03-06T03:30:11;2.70;;;1.20;;
75772;SDS011;64381;0.000;0.000;2024-03-06T03:32:36;2.80;;;1.20;;
75772;SDS011;64381;0.000;0.000;2024-03-06T03:35:05;2.80;;;1.20;;
75772;SDS011;64381;0.000;0.000;2024-03-06T03:37:31;2.80;;;1.10;;
75772;SDS011;64381;0.000;0.000;2024-03-06T03:39:56;2.80;;;1.20;;
75772;SDS011;64381;0.000;0.000;2024-03-06T03:42:21;2.70;;;1.00;;
75772;SDS011;64381;0.000;0.000;2024-03-06T03:44:47;2.80;;;1.23;;
75772;SDS011;64381;0.000;0.000;2024-03-06T03:47:12;2.70;;;1.20;;
75772;SDS011;64381;0.000;0.000;2024-03-06T03:49:37;2.57;;;1.10;;
75772;SDS011;64381;0.000;0.000;2024-03-06T03:52:03;2.60;;;1.10;;
75772;SDS011;64381;0.000;0.000;2024-03-06T03:54:28;2.83;;;1.10;;
75772;SDS011;64381;0.000;0.000;2024-03-06T03:56:53;2.80;;;1.00;;
75772;SDS011;64381;0.000;0.000;2024-03-06T03:59:18;2.70;;;1.20;;
75772;SDS011;64381;0.000;0.000;2024-03-06T04:01:46;2.60;;;0.90;;
75772;SDS011;64381;0.000;0.000;2024-03-06T04:04:12;2.63;;;1.03;;
75772;SDS011;64381;0.000;0.000;2024-03-06T04:06:38;2.60;;;1.10;;
75772;SDS011;64381;0.000;0.000;2024-03-06T04:09:03;2.80;;;1.20;;
75772;SDS011;64381;0.000;0.000;2024-03-06T04:11:28;2.70;;;1.20;;
75772;SDS011;64381;0.000;0.000;2024-03-06T04:13:54;2.50;;;0.90;;
75772;SDS011;64381;0.000;0.000;2024-03-06T04:16:19;2.83;;;1.10;;
75772;SDS011;64381;0.000;0.000;2024-03-06T04:18:44;2.50;;;1.13;;
75772;SDS011;64381;0.000;0.000;2024-03-06T04:21:10;2.63;;;1.10;;
75772;SDS011;64381;0.000;0.000;2024-03-06T04:23:35;2.60;;;1.00;;
75772;SDS011;64381;0.000;0.000;2024-03-06T04:26:00;2.50;;;1.00;;
75772;SDS011;64381;0.000;0.000;2024-03-06T04:28:25;2.55;;;1.10;;
75772;SDS011;64381;0.000;0.000;2024-03-06T04:30:51;2.63;;;1.03;;
75772;SDS011;64381;0.000;0.000;2024-03-06T04:33:16;2.63;;;1.13;;
75772;SDS011;64381;0.000;0.000;2024-03-06T04:35:41;2.50;;;1.10;;
75772;SDS011;64381;0.000;0.000;2024-03-06T04:38:06;2.60;;;1.10;;
75772;SDS011;64381;0.000;0.000;2024-03-06T04:40:32;2.63;;;1.00;;
75772;SDS011;64381;0.000;0.000;2024-03-06T04:42:58;2.72;;;1.10;;
75772;SDS011;64381;0.000;0.000;2024-03-06T04:45:23;2.80;;;1.10;;
75772;SDS011;64381;0.000;0.000;2024-03-06T04:47:49;3.00;;;1.20;;
75772;SDS011;64381;0.000;0.000;2024-03-06T04:50:14;2.50;;;1.00;;
75772;SDS011;64381;0.000;0.000;2024-03-06T04:52:40;2.57;;;0.97;;
75772;SDS011;64381;0.000;0.000;2024-03-06T04:55:06;2.92;;;1.10;;
75772;SDS011;64381;0.000;0.000;2024-03-06T04:57:32;2.60;;;1.10;;
75772;SDS011;64381;0.000;0.000;2024-03-06T04:59:57;2.50;;;1.00;;
75772;SDS011;64381;0.000;0.000;2024-03-06T05:02:23;2.43;;;0.90;;
75772;SDS011;64381;0.000;0.000;2024-03-06T05:04:48;2.33;;;1.00;;
75772;SDS011;64381;0.000;0.000;2024-03-06T05:07:13;2.60;;;1.10;;
75772;SDS011;64381;0.000;0.000;2024-03-06T05:09:38;2.77;;;1.17;;
75772;SDS011;64381;0.000;0.000;2024-03-06T05:12:04;2.60;;;1.10;;
75772;SDS011;64381;0.000;0.000;2024-03-06T05:14:29;2.50;;;1.00;;
75772;SDS011;64381;0.000;0.000;2024-03-06T05:16:54;2.83;;;1.17;;
75772;SDS011;64381;0.000;0.000;2024-03-06T05:19:19;2.40;;;0.90;;
75772;SDS011;64381;0.000;0.000;2024-03-06T05:21:44;2.67;;;1.10;;
75772;SDS011;64381;0.000;0.000;2024-03-06T05:24:10;2.50;;;1.00;;
75772;SDS011;64381;0.000;0.000;2024-03-06T05:26:35;2.57;;;1.00;;
75772;SDS011;64381;0.000;0.000;2024-03-06T05:29:00;2.70;;;1.00;;
75772;SDS011;64381;0.000;0.000;2024-03-06T05:31:25;2.40;;;1.00;;
75772;SDS011;64381;0.000;0.000;2024-03-06T05:33:50;2.50;;;0.93;;
75772;SDS011;64381;0.000;0.000;2024-03-06T05:36:16;2.63;;;1.00;;
75772;SDS011;64381;0.000;0.000;2024-03-06T05:38:41;2.70;;;1.00;;
75772;SDS011;64381;0.000;0.000;2024-03-06T05:41:06;2.70;;;1.30;;
75772;SDS011;64381;0.000;0.000;2024-03-06T05:43:32;2.60;;;1.00;;
75772;SDS011;64381;0.000;0.000;2024-03-06T05:45:57;2.50;;;1.07;;
75772;SDS011;64381;0.000;0.000;2024-03-06T05:48:22;2.53;;;1.00;;
75772;SDS011;64381;0.000;0.000;2024-03-06T05:50:47;2.70;;;1.10;;
75772;SDS011;64381;0.000;0.000;2024-03-06T05:53:13;2.60;;;1.00;;
75772;SDS011;64381;0.000;0.000;2024-03-06T05:55:38;2.60;;;1.10;;
75772;SDS011;64381;0.000;0.000;2024-03-06T05:58:03;2.70;;;1.10;;
75772;SDS011;64381;0.000;0.000;2024-03-06T06:00:28;2.70;;;1.00;;
75772;SDS011;64381;0.000;0.000;2024-03-06T06:02:54;2.53;;;1.20;;
75772;SDS011;64381;0.000;0.000;2024-03-06T06:05:19;2.30;;;0.90;;
75772;SDS011;64381;0.000;0.000;2024-03-06T06:07:44;2.70;;;1.00;;
75772;SDS011;64381;0.000;0.000;2024-03-06T06:10:09;2.83;;;1.20;;
75772;SDS011;64381;0.000;0.000;2024-03-06T06:12:34;2.60;;;1.03;;
75772;SDS011;64381;0.000;0.000;2024-03-06T06:15:00;2.50;;;1.00;;
75772;SDS011;64381;0.000;0.000;2024-03-06T06:17:25;2.50;;;1.00;;
75772;SDS011;64381;0.000;0.000;2024-03-06T06:19:50;2.50;;;1.00;;
75772;SDS011;64381;0.000;0.000;2024-03-06T06:22:15;2.50;;;1.00;;
75772;SDS011;64381;0.000;0.000;2024-03-06T06:24:41;2.53;;;1.10;;
75772;SDS011;64381;0.000;0.000;2024-03-06T06:27:06;2.37;;;1.00;;
75772;SDS011;64381;0.000;0.000;2024-03-06T06:29:31;2.40;;;1.00;;
75772;SDS011;64381;0.000;0.000;2024-03-06T06:31:56;2.40;;;1.00;;
75772;SDS011;64381;0.000;0.000;2024-03-06T06:34:21;2.50;;;1.00;;
75772;SDS011;64381;0.000;0.000;2024-03-06T06:36:47;2.73;;;1.20;;
75772;SDS011;64381;0.000;0.000;2024-03-06T06:39:12;2.40;;;1.10;;
75772;SDS011;64381;0.000;0.000;2024-03-06T06:41:37;2.30;;;1.00;;
75772;SDS011;64381;0.000;0.000;2024-03-06T06:44:03;2.50;;;1.00;;
75772;SDS011;64381;0.000;0.000;2024-03-06T06:46:28;2.53;;;1.13;;
75772;SDS011;64381;0.000;0.000;2024-03-06T06:48:53;2.80;;;0.93;;
75772;SDS011;64381;0.000;0.000;2024-03-06T06:51:18;2.50;;;1.10;;
75772;SDS011;64381;0.000;0.000;2024-03-06T06:53:44;3.70;;;1.00;;
75772;SDS011;64381;0.000;0.000;2024-03-06T06:56:09;3.17;;;1.10;;
75772;SDS011;64381;0.000;0.000;2024-03-06T06:58:34;3.23;;;1.00;;
75772;SDS011;64381;0.000;0.000;2024-03-06T07:00:59;2.57;;;1.00;;
75772;SDS011;64381;0.000;0.000;2024-03-06T07:03:24;3.00;;;1.00;;
75772;SDS011;64381;0.000;0.000;2024-03-06T07:05:50;4.40;;;1.20;;
75772;SDS011;64381;0.000;0.000;2024-03-06T07:08:15;2.70;;;1.10;;
75772;SDS011;64381;0.000;0.000;2024-03-06T07:10:40;3.10;;;1.10;;
75772;SDS011;64381;0.000;0.000;2024-03-06T07:13:05;2.70;;;1.00;;
75772;SDS011;64381;0.000;0.000;2024-03-06T07:15:30;2.33;;;0.87;;
75772;SDS011;64381;0.000;0.000;2024-03-06T07:17:56;3.27;;;1.33;;
75772;SDS011;64381;0.000;0.000;2024-03-06T07:20:21;2.70;;;0.90;;
75772;SDS011;64381;0.000;0.000;2024-03-06T07:22:46;2.60;;;0.90;;
75772;SDS011;64381;0.000;0.000;2024-03-06T07:25:11;4.87;;;0.97;;
75772;SDS011;64381;0.000;0.000;2024-03-06T07:27:37;2.67;;;0.70;;
75772;SDS011;64381;0.000;0.000;2024-03-06T07:30:02;2.53;;;1.00;;
75772;SDS011;64381;0.000;0.000;2024-03-06T07:32:27;3.73;;;0.90;;
75772;SDS011;64381;0.000;0.000;2024-03-06T07:34:52;2.80;;;1.00;;
75772;SDS011;64381;0.000;0.000;2024-03-06T07:37:18;3.03;;;1.00;;
75772;SDS011;64381;0.000;0.000;2024-03-06T07:39:43;2.83;;;0.90;;
75772;SDS011;64381;0.000;0.000;2024-03-06T07:42:08;2.57;;;1.00;;
75772;SDS011;64381;0.000;0.000;2024-03-06T07:44:34;2.60;;;1.00;;
75772;SDS011;64381;0.000;0.000;2024-03-06T07:46:59;2.60;;;1.00;;
75772;SDS011;64381;0.000;0.000;2024-03-06T07:49:24;2.60;;;0.90;;
75772;SDS011;64381;0.000;0.000;2024-03-06T07:51:49;2.90;;;0.90;;
75772;SDS011;64381;0.000;0.000;2024-03-06T07:54:15;3.10;;;1.00;;
75772;SDS011;64381;0.000;0.000;2024-03-06T07:56:40;3.17;;;0.90;;
75772;SDS011;64381;0.000;0.000;2024-03-06T07:59:05;2.80;;;1.10;;
75772;SDS011;64381;0.000;0.000;2024-03-06T08:01:30;2.73;;;1.10;;
75772;SDS011;64381;0.000;0.000;2024-03-06T08:03:56;2.50;;;0.90;;
75772;SDS011;64381;0.000;0.000;2024-03-06T08:06:21;2.50;;;0.90;;
75772;SDS011;64381;0.000;0.000;2024-03-06T08:08:46;2.47;;;0.93;;
75772;SDS011;64381;0.000;0.000;2024-03-06T08:11:11;3.33;;;0.90;;
75772;SDS011;64381;0.000;0.000;2024-03-06T08:13:37;2.30;;;0.80;;
75772;SDS011;64381;0.000;0.000;2024-03-06T08:16:03;3.35;;;1.10;;
75772;SDS011;64381;0.000;0.000;2024-03-06T08:18:29;3.25;;;0.93;;
75772;SDS011;64381;0.000;0.000;2024-03-06T08:20:54;2.50;;;1.00;;
75772;SDS011;64381;0.000;0.000;2024-03-06T08:23:19;3.70;;;1.00;;
75772;SDS011;64381;0.000;0.000;2024-03-06T08:25:44;2.77;;;1.10;;
75772;SDS011;64381;0.000;0.000;2024-03-06T08:28:10;2.60;;;1.03;;
75772;SDS011;64381;0.000;0.000;2024-03-06T08:30:35;2.60;;;0.90;;
75772;SDS011;64381;0.000;0.000;2024-03-06T08:33:00;2.50;;;0.90;;
75772;SDS011;64381;0.000;0.000;2024-03-06T08:35:25;2.47;;;0.87;;
75772;SDS011;64381;0.000;0.000;2024-03-06T08:37:51;2.40;;;0.87;;
75772;SDS011;64381;0.000;0.000;2024-03-06T08:40:17;2.37;;;0.83;;
75772;SDS011;64381;0.000;0.000;2024-03-06T08:42:45;2.40;;;0.80;;
75772;SDS011;64381;0.000;0.000;2024-03-06T08:45:11;2.50;;;1.00;;
75772;SDS011;64381;0.000;0.000;2024-03-06T08:47:36;2.53;;;0.80;;
75772;SDS011;64381;0.000;0.000;2024-03-06T08:50:02;2.70;;;1.10;;
75772;SDS011;64381;0.000;0.000;2024-03-06T08:52:28;2.38;;;0.90;;
75772;SDS011;64381;0.000;0.000;2024-03-06T08:54:53;2.95;;;0.90;;
75772;SDS011;64381;0.000;0.000;2024-03-06T08:57:18;2.83;;;1.10;;
75772;SDS011;64381;0.000;0.000;2024-03-06T08:59:44;2.30;;;0.80;;
75772;SDS011;64381;0.000;0.000;2024-03-06T09:02:17;2.30;;;0.90;;
75772;SDS011;64381;0.000;0.000;2024-03-06T09:04:43;2.97;;;0.82;;
75772;SDS011;64381;0.000;0.000;2024-03-06T09:07:08;2.40;;;0.90;;
75772;SDS011;64381;0.000;0.000;2024-03-06T09:09:34;2.83;;;1.00;;
75772;SDS011;64381;0.000;0.000;2024-03-06T09:12:06;2.30;;;0.90;;
75772;SDS011;64381;0.000;0.000;2024-03-06T09:14:32;2.53;;;0.90;;
75772;SDS011;64381;0.000;0.000;2024-03-06T09:16:58;2.57;;;0.87;;
75772;SDS011;64381;0.000;0.000;2024-03-06T09:19:23;2.73;;;0.93;;
75772;SDS011;64381;0.000;0.000;2024-03-06T09:21:49;2.40;;;0.80;;
75772;SDS011;64381;0.000;0.000;2024-03-06T09:24:14;2.53;;;0.90;;
75772;SDS011;64381;0.000;0.000;2024-03-06T09:26:39;2.60;;;0.87;;
75772;SDS011;64381;0.000;0.000;2024-03-06T09:29:05;2.93;;;1.07;;
75772;SDS011;64381;0.000;0.000;2024-03-06T09:31:30;2.30;;;0.80;;
75772;SDS011;64381;0.000;0.000;2024-03-06T09:33:55;2.80;;;0.90;;
75772;SDS011;64381;0.000;0.000;2024-03-06T09:36:20;2.23;;;0.80;;
75772;SDS011;64381;0.000;0.000;2024-03-06T09:38:47;2.30;;;0.80;;
75772;SDS011;64381;0.000;0.000;2024-03-06T09:41:12;2.33;;;0.80;;
75772;SDS011;64381;0.000;0.000;2024-03-06T09:43:38;2.43;;;0.90;;
75772;SDS011;64381;0.000;0.000;2024-03-06T09:46:03;2.43;;;0.80;;
75772;SDS011;64381;0.000;0.000;2024-03-06T09:48:28;2.10;;;0.80;;
75772;SDS011;64381;0.000;0.000;2024-03-06T09:50:53;2.30;;;0.90;;
75772;SDS011;64381;0.000;0.000;2024-03-06T09:53:25;2.45;;;0.80;;
75772;SDS011;64381;0.000;0.000;2024-03-06T09:55:51;2.40;;;0.85;;
75772;SDS011;64381;0.000;0.000;2024-03-06T09:58:16;2.30;;;0.70;;
75772;SDS011;64381;0.000;0.000;2024-03-06T10:00:42;2.40;;;0.80;;
75772;SDS011;64381;0.000;0.000;2024-03-06T10:03:07;2.70;;;1.00;;
75772;SDS011;64381;0.000;0.000;2024-03-06T10:05:32;2.40;;;0.90;;
75772;SDS011;64381;0.000;0.000;2024-03-06T10:07:57;2.43;;;0.90;;
75772;SDS011;64381;0.000;0.000;2024-03-06T10:10:23;2.43;;;0.90;;
75772;SDS011;64381;0.000;0.000;2024-03-06T10:12:48;2.57;;;1.00;;
75772;SDS011;64381;0.000;0.000;2024-03-06T10:15:14;2.72;;;0.80;;
75772;SDS011;64381;0.000;0.000;2024-03-06T10:17:39;2.77;;;0.87;;
75772;SDS011;64381;0.000;0.000;2024-03-06T10:20:23;2.47;;;0.90;;
75772;SDS011;64381;0.000;0.000;2024-03-06T10:22:52;2.47;;;1.00;;
75772;SDS011;64381;0.000;0.000;2024-03-06T10:25:21;2.28;;;0.85;;
75772;SDS011;64381;0.000;0.000;2024-03-06T10:30:39;2.40;;;0.80;;
75772;SDS011;64381;0.000;0.000;2024-03-06T10:33:05;2.30;;;0.80;;
75772;SDS011;64381;0.000;0.000;2024-03-06T10:35:30;2.67;;;0.80;;
75772;SDS011;64381;0.000;0.000;2024-03-06T10:37:56;2.30;;;0.80;;
75772;SDS011;64381;0.000;0.000;2024-03-06T10:40:21;2.13;;;0.70;;
75772;SDS011;64381;0.000;0.000;2024-03-06T10:42:47;2.47;;;0.80;;
75772;SDS011;64381;0.000;0.000;2024-03-06T10:45:13;2.15;;;0.80;;
75772;SDS011;64381;0.000;0.000;2024-03-06T10:47:39;2.40;;;0.90;;
75772;SDS011;64381;0.000;0.000;2024-03-06T10:50:05;2.40;;;0.90;;
75772;SDS011;64381;0.000;0.000;2024-03-06T10:52:31;2.45;;;0.90;;
75772;SDS011;64381;0.000;0.000;2024-03-06T10:54:58;3.13;;;0.73;;
75772;SDS011;64381;0.000;0.000;2024-03-06T10:57:25;3.40;;;1.00;;
75772;SDS011;64381;0.000;0.000;2024-03-06T10:59:50;2.30;;;0.90;;
75772;SDS011;64381;0.000;0.000;2024-03-06T11:02:17;2.47;;;0.83;;
75772;SDS011;64381;0.000;0.000;2024-03-06T11:04:43;2.20;;;0.80;;
75772;SDS011;64381;0.000;0.000;2024-03-06T11:07:09;2.40;;;0.73;;
75772;SDS011;64381;0.000;0.000;2024-03-06T11:09:34;2.40;;;0.80;;
75772;SDS011;64381;0.000;0.000;2024-03-06T11:12:02;2.40;;;0.90;;
75772;SDS011;64381;0.000;0.000;2024-03-06T11:14:30;2.30;;;0.80;;
75772;SDS011;64381;0.000;0.000;2024-03-06T11:19:29;2.83;;;0.80;;
75772;SDS011;64381;0.000;0.000;2024-03-06T11:21:55;2.20;;;0.70;;
75772;SDS011;64381;0.000;0.000;2024-03-06T11:24:21;2.50;;;0.80;;
75772;SDS011;64381;0.000;0.000;2024-03-06T11:29:18;2.40;;;0.88;;
75772;SDS011;64381;0.000;0.000;2024-03-06T11:32:06;2.38;;;0.73;;
75772;SDS011;64381;0.000;0.000;2024-03-06T11:34:32;2.50;;;0.80;;
75772;SDS011;64381;0.000;0.000;2024-03-06T11:36:58;2.20;;;0.80;;
75772;SDS011;64381;0.000;0.000;2024-03-06T11:39:24;2.30;;;0.70;;
75772;SDS011;64381;0.000;0.000;2024-03-06T11:41:53;2.28;;;0.80;;
75772;SDS011;64381;0.000;0.000;2024-03-06T11:44:21;2.77;;;0.80;;
75772;SDS011;64381;0.000;0.000;2024-03-06T11:46:47;2.13;;;0.80;;
75772;SDS011;64381;0.000;0.000;2024-03-06T11:49:14;2.30;;;0.87;;
75772;SDS011;64381;0.000;0.000;2024-03-06T11:51:44;2.47;;;0.90;;
75772;SDS011;64381;0.000;0.000;2024-03-06T11:54:10;2.30;;;0.77;;
75772;SDS011;64381;0.000;0.000;2024-03-06T11:56:35;2.30;;;0.90;;
75772;SDS011;64381;0.000;0.000;2024-03-06T11:59:00;2.40;;;0.70;;
75772;SDS011;64381;0.000;0.000;2024-03-06T12:01:25;2.30;;;0.80;;
75772;SDS011;64381;0.000;0.000;2024-03-06T12:03:51;2.37;;;0.83;;
75772;SDS011;64381;0.000;0.000;2024-03-06T12:06:16;2.42;;;0.70;;
75772;SDS011;64381;0.000;0.000;2024-03-06T12:08:42;2.27;;;0.80;;
75772;SDS011;64381;0.000;0.000;2024-03-06T12:11:07;1.90;;;0.70;;
75772;SDS011;64381;0.000;0.000;2024-03-06T12:13:32;2.30;;;0.80;;
75772;SDS011;64381;0.000;0.000;2024-03-06T12:15:58;2.40;;;0.93;;
75772;SDS011;64381;0.000;0.000;2024-03-06T12:18:24;2.50;;;0.80;;
75772;SDS011;64381;0.000;0.000;2024-03-06T12:20:49;2.10;;;0.63;;
75772;SDS011;64381;0.000;0.000;2024-03-06T12:23:21;2.30;;;0.73;;
75772;SDS011;64381;0.000;0.000;2024-03-06T12:25:47;2.22;;;0.80;;
75772;SDS011;64381;0.000;0.000;2024-03-06T12:28:12;2.20;;;0.73;;
75772;SDS011;64381;0.000;0.000;2024-03-06T12:30:41;2.30;;;0.80;;
75772;SDS011;64381;0.000;0.000;2024-03-06T12:33:08;2.22;;;0.73;;
75772;SDS011;64381;0.000;0.000;2024-03-06T12:35:33;2.10;;;0.70;;
75772;SDS011;64381;0.000;0.000;2024-03-06T12:37:58;2.57;;;0.70;;
75772;SDS011;64381;0.000;0.000;2024-03-06T12:40:23;2.30;;;0.80;;
75772;SDS011;64381;0.000;0.000;2024-03-06T12:42:49;2.23;;;0.70;;
75772;SDS011;64381;0.000;0.000;2024-03-06T12:45:15;1.98;;;0.68;;
75772;SDS011;64381;0.000;0.000;2024-03-06T12:47:44;2.40;;;0.80;;
75772;SDS011;64381;0.000;0.000;2024-03-06T12:50:10;2.15;;;0.70;;
75772;SDS011;64381;0.000;0.000;2024-03-06T12:52:35;2.30;;;0.87;;
75772;SDS011;64381;0.000;0.000;2024-03-06T12:55:00;2.30;;;0.80;;
75772;SDS011;64381;0.000;0.000;2024-03-06T12:57:26;2.20;;;0.90;;
75772;SDS011;64381;0.000;0.000;2024-03-06T12:59:51;2.40;;;0.87;;
75772;SDS011;64381;0.000;0.000;2024-03-06T13:02:17;2.40;;;1.00;;
75772;SDS011;64381;0.000;0.000;2024-03-06T13:04:42;2.60;;;0.80;;
75772;SDS011;64381;0.000;0.000;2024-03-06T13:07:07;2.20;;;0.90;;
75772;SDS011;64381;0.000;0.000;2024-03-06T13:09:32;2.40;;;0.80;;
75772;SDS011;64381;0.000;0.000;2024-03-06T13:11:57;2.30;;;0.80;;
75772;SDS011;64381;0.000;0.000;2024-03-06T13:14:23;2.00;;;0.60;;
75772;SDS011;64381;0.000;0.000;2024-03-06T13:16:48;2.30;;;0.80;;
75772;SDS011;64381;0.000;0.000;2024-03-06T13:19:13;2.27;;;0.80;;
75772;SDS011;64381;0.000;0.000;2024-03-06T13:21:38;2.30;;;0.80;;
75772;SDS011;64381;0.000;0.000;2024-03-06T13:24:04;2.23;;;0.70;;
75772;SDS011;64381;0.000;0.000;2024-03-06T13:26:29;2.20;;;0.70;;
75772;SDS011;64381;0.000;0.000;2024-03-06T13:28:54;2.50;;;0.80;;
75772;SDS011;64381;0.000;0.000;2024-03-06T13:31:19;2.23;;;0.73;;
75772;SDS011;64381;0.000;0.000;2024-03-06T13:33:45;2.10;;;0.70;;
75772;SDS011;64381;0.000;0.000;2024-03-06T13:36:10;2.20;;;0.70;;
75772;SDS011;64381;0.000;0.000;2024-03-06T13:38:35;2.00;;;0.60;;
75772;SDS011;64381;0.000;0.000;2024-03-06T13:41:00;2.37;;;0.80;;
75772;SDS011;64381;0.000;0.000;2024-03-06T13:43:26;1.90;;;0.60;;
75772;SDS011;64381;0.000;0.000;2024-03-06T13:45:51;2.50;;;0.80;;
75772;SDS011;64381;0.000;0.000;2024-03-06T13:48:16;2.00;;;0.60;;
75772;SDS011;64381;0.000;0.000;2024-03-06T13:50:44;2.27;;;0.87;;
75772;SDS011;64381;0.000;0.000;2024-03-06T13:53:10;2.20;;;0.80;;
75772;SDS011;64381;0.000;0.000;2024-03-06T13:55:36;2.38;;;0.80;;
75772;SDS011;64381;0.000;0.000;2024-03-06T13:58:01;2.23;;;0.80;;
75772;SDS011;64381;0.000;0.000;2024-03-06T14:00:27;2.30;;;0.80;;
75772;SDS011;64381;0.000;0.000;2024-03-06T14:02:52;2.40;;;0.90;;
75772;SDS011;64381;0.000;0.000;2024-03-06T14:05:17;2.33;;;0.80;;
75772;SDS011;64381;0.000;0.000;2024-03-06T14:07:43;1.83;;;0.67;;
75772;SDS011;64381;0.000;0.000;2024-03-06T14:10:08;2.30;;;0.73;;
75772;SDS011;64381;0.000;0.000;2024-03-06T14:12:33;2.17;;;0.60;;
75772;SDS011;64381;0.000;0.000;2024-03-06T14:14:59;2.40;;;0.70;;
75772;SDS011;64381;0.000;0.000;2024-03-06T14:17:24;2.33;;;0.77;;
75772;SDS011;64381;0.000;0.000;2024-03-06T14:19:49;2.20;;;0.73;;
75772;SDS011;64381;0.000;0.000;2024-03-06T14:22:15;2.40;;;0.77;;
75772;SDS011;64381;0.000;0.000;2024-03-06T14:24:40;2.30;;;0.90;;
75772;SDS011;64381;0.000;0.000;2024-03-06T14:27:05;2.17;;;0.70;;
75772;SDS011;64381;0.000;0.000;2024-03-06T14:29:30;2.20;;;0.63;;
75772;SDS011;64381;0.000;0.000;2024-03-06T14:31:56;2.00;;;0.63;;
75772;SDS011;64381;0.000;0.000;2024-03-06T14:34:21;2.00;;;0.70;;
75772;SDS011;64381;0.000;0.000;2024-03-06T14:36:46;2.40;;;0.80;;
75772;SDS011;64381;0.000;0.000;2024-03-06T14:39:11;2.23;;;0.60;;
75772;SDS011;64381;0.000;0.000;2024-03-06T14:41:37;2.47;;;0.80;;
75772;SDS011;64381;0.000;0.000;2024-03-06T14:44:02;2.40;;;0.80;;
75772;SDS011;64381;0.000;0.000;2024-03-06T14:46:27;2.10;;;0.60;;
75772;SDS011;64381;0.000;0.000;2024-03-06T14:48:52;2.33;;;0.80;;
75772;SDS011;64381;0.000;0.000;2024-03-06T14:51:18;2.30;;;0.80;;
75772;SDS011;64381;0.000;0.000;2024-03-06T14:53:43;2.50;;;0.80;;
75772;SDS011;64381;0.000;0.000;2024-03-06T14:56:08;1.97;;;0.70;;
75772;SDS011;64381;0.000;0.000;2024-03-06T14:58:33;2.10;;;0.70;;